Aeroporto :
LOGIN :

Iscrizione | Disclaimer

   EN    FR    IT 

 










Sommario :    VFR   VFR Marginale   IFR   IFR Intensivo   IFR Molto Intensivo
Visibilità : 
Base nubi : 
>= 8 km
>= 3000ft
5 / 8 km
1000 / 3000 ft
1500m / 5 km
500 / 1000 ft
800 / 1500m
200 / 500 ft
< 800m
< 200 ft
Simboli :   Temporali  Nebbia  Neve Forte  Precipitazioni Forti  Vento > 20 kt
SIGMETs :   Varie  Temporali  Ghiacco  Turbolenza  Onda orograficha  Ceneri Vulcaniche






- Altitudine del aeroporto : 202 ft
- Codice IATA : LGW


EGKK - London Gatwick

ULTIMO METAR :
  • 121020Z 24011KT CAVOK 06/02 Q0999

METARs OBSOLETI :
  • 120950Z 24010KT CAVOK 05/02 Q0999
  • 120920Z 23010KT CAVOK 05/02 Q0999
  • 120850Z 23007KT CAVOK 04/02 Q0999
  • 120820Z 24007KT CAVOK 03/02 Q1000
  • 120750Z 23008KT CAVOK 03/01 Q1000

TAF TAF EGKK
Valido dal 12 a 06 ore il 13 a 12 ore UTC


120453Z 1206/1312 25008KT 9999 FEW025
TEMPO 1211/1218 26015G25KT
PROB30
TEMPO 1213/1220 7000 RA BKN014
PROB30 1303/1309 4000 BR



MetMap, La meteo Aeronautica in un colpo d'occhio ! - Copyright ORBIFLY Dicembre 2007 - Disclaimer

ORBIFLY MET'MAP TEAM :

Programmazione e sviluppo : Alexandra Zaïnal
Concezione e sviluppo : Baudouin d'Aumeries
Co-Programmazione e sviluppo : Marc-Olivier Méhu
Supporto tecnico e logistico : Manuel Goepfert
Aiuto per la traduzione : Arnaldo La Scala

Contatto : metmap@orbifly.com




FONTI E CREDITI :

   NOAA